Time;durP1;ratioP1;P1;durP2;ratioP2;P2;SDS_P1;SDS_P2;PMS_P1;PMS_P2;Temp;Humidity;BMP_temperature;BMP_pressure;BME280_temperature;BME280_humidity;BME280_pressure;Samples;Min_cycle;Max_cycle;Signal;HPM_P1;HPM_P2
2021/12/02 00:01:23;;;;;;;25.05;13.27;;;;;;;-2.06;78.64;92981.72;5097923;28;20027;-44
2021/12/02 00:03:49;;;;;;;22.35;12.35;;;;;;;-1.94;78.56;92983.28;5096278;28;20028;-42
2021/12/02 00:06:17;;;;;;;23.45;14.52;;;;;;;-1.79;78.79;92978.50;5096394;28;20118;-45
2021/12/02 00:08:44;;;;;;;35.42;19.98;;;;;;;-1.71;78.80;92995.03;5097833;28;20378;-41
2021/12/02 00:11:10;;;;;;;34.72;20.33;;;;;;;-1.95;79.00;92998.03;5097259;28;20056;-42
2021/12/02 00:21:18;;;;;;;46.05;24.27;;;;;;;-1.75;78.21;92989.09;5094209;28;20048;-44
2021/12/02 00:23:46;;;;;;;33.28;19.35;;;;;;;-1.67;78.17;92988.16;5098925;28;20114;-45
2021/12/02 00:26:17;;;;;;;33.83;21.38;;;;;;;-1.72;77.37;92983.47;5097968;28;20031;-44
2021/12/02 00:28:42;;;;;;;40.75;23.27;;;;;;;-1.67;77.20;92987.44;5099040;28;20024;-48
2021/12/02 00:31:15;;;;;;;38.65;22.08;;;;;;;-1.61;77.22;92993.63;5101803;28;20020;-44
2021/12/02 00:33:45;;;;;;;39.92;23.05;;;;;;;-1.62;77.23;93001.00;5100555;28;20497;-43
2021/12/02 00:36:12;;;;;;;42.88;23.73;;;;;;;-1.49;76.54;93000.59;5102446;28;20024;-46
2021/12/02 00:38:40;;;;;;;44.13;25.90;;;;;;;-1.42;76.03;93002.09;5100868;28;20574;-44
2021/12/02 00:41:05;;;;;;;45.33;25.33;;;;;;;-1.49;76.00;92997.88;5100111;28;20035;-42
2021/12/02 00:43:33;;;;;;;41.25;24.85;;;;;;;-1.94;76.63;93004.94;5100279;28;20028;-44
2021/12/02 00:46:00;;;;;;;23.07;13.60;;;;;;;-2.20;77.44;93015.03;5100113;27;20119;-42
2021/12/02 00:48:25;;;;;;;18.13;10.25;;;;;;;-2.11;76.97;93028.38;5100341;28;20474;-43
2021/12/02 00:50:51;;;;;;;13.32;7.38;;;;;;;-2.28;77.96;93024.03;5102026;28;20503;-45
2021/12/02 00:53:20;;;;;;;7.85;6.28;;;;;;;-2.12;77.60;93026.91;5099103;28;20027;-44
2021/12/02 00:55:46;;;;;;;13.70;6.10;;;;;;;-2.00;77.36;93022.34;5100807;28;20499;-41
2021/12/02 00:58:18;;;;;;;12.45;7.63;;;;;;;-2.24;76.38;92975.91;5098917;28;20044;-43
2021/12/02 01:00:47;;;;;;;13.38;8.30;;;;;;;-1.72;74.97;93034.88;5101165;28;20039;-42
2021/12/02 01:03:14;;;;;;;25.08;14.85;;;;;;;-1.84;75.42;93044.13;5099302;28;20497;-41
2021/12/02 01:05:40;;;;;;;25.27;14.65;;;;;;;-1.74;75.21;93047.41;5099477;28;20032;-43
2021/12/02 01:08:05;;;;;;;25.88;15.52;;;;;;;-2.03;75.84;93007.81;5099094;28;20463;-42
2021/12/02 01:10:31;;;;;;;57.88;29.58;;;;;;;-2.35;77.41;93003.56;5099417;28;20076;-41
2021/12/02 01:12:56;;;;;;;37.13;21.33;;;;;;;-2.01;77.43;93034.38;5101811;28;20053;-44
2021/12/02 01:15:22;;;;;;;26.95;12.90;;;;;;;-2.05;77.70;93031.13;5098142;28;20078;-43
2021/12/02 01:17:48;;;;;;;24.98;15.32;;;;;;;-2.14;78.00;93012.38;5099113;28;20428;-44
2021/12/02 01:20:13;;;;;;;20.05;13.13;;;;;;;-2.05;78.11;93021.06;5099472;28;20103;-42
2021/12/02 01:22:39;;;;;;;20.73;10.55;;;;;;;-1.97;77.58;93016.69;5100481;28;20027;-45
2021/12/02 01:25:06;;;;;;;16.63;9.50;;;;;;;-1.83;75.42;93009.69;5100012;28;20035;-44
2021/12/02 01:27:37;;;;;;;28.52;16.30;;;;;;;-1.83;75.48;93015.84;5099656;28;20565;-40
2021/12/02 01:30:06;;;;;;;39.20;18.80;;;;;;;-1.74;75.48;92996.75;5102338;28;20016;-41
2021/12/02 01:32:37;;;;;;;91.78;43.50;;;;;;;-1.85;76.06;93004.03;5101302;28;20028;-42
2021/12/02 01:35:04;;;;;;;33.22;16.73;;;;;;;-2.20;76.84;92974.47;5097477;28;20028;-40
2021/12/02 01:37:30;;;;;;;40.72;21.45;;;;;;;-1.92;76.85;92996.34;5101182;28;20073;-38
2021/12/02 01:39:57;;;;;;;15.90;9.20;;;;;;;-1.91;78.13;92998.56;5098401;28;20024;-37
2021/12/02 01:42:24;;;;;;;43.00;22.92;;;;;;;-1.92;77.56;92999.78;5097143;28;20031;-36
2021/12/02 01:44:53;;;;;;;46.97;22.17;;;;;;;-2.03;77.33;92985.41;5101368;28;20436;-37
2021/12/02 01:47:23;;;;;;;34.67;21.02;;;;;;;-2.09;78.13;92996.19;5099179;28;20028;-38
2021/12/02 01:49:51;;;;;;;25.25;14.02;;;;;;;-2.07;77.08;92988.34;5100968;28;20039;-38
2021/12/02 01:52:20;;;;;;;26.42;16.48;;;;;;;-2.00;76.17;92992.59;5096842;28;20031;-37
2021/12/02 01:54:47;;;;;;;21.88;11.98;;;;;;;-2.33;76.40;92966.75;5100570;28;20031;-37
2021/12/02 01:57:33;;;;;;;16.35;9.73;;;;;;;-2.37;76.89;92992.50;5099757;28;20028;-37
2021/12/02 02:00:15;;;;;;;16.92;11.13;;;;;;;-2.40;77.32;92985.31;5098496;28;20033;-46
2021/12/02 02:02:41;;;;;;;19.20;11.88;;;;;;;-2.69;77.38;92985.53;5100719;28;20024;-40
2021/12/02 02:05:12;;;;;;;15.88;9.57;;;;;;;-2.64;77.96;92987.56;5099540;28;20015;-39
2021/12/02 02:08:04;;;;;;;19.50;11.32;;;;;;;-2.50;77.14;92994.81;5099623;28;20077;-40
2021/12/02 02:10:33;;;;;;;26.63;15.77;;;;;;;-2.57;77.42;92992.53;5088419;28;20039;-39
2021/12/02 02:13:02;;;;;;;;;;;;;;;-2.65;78.46;92994.16;5101281;28;20106;-40
2021/12/02 02:15:28;;;;;;;;;;;;;;;-2.42;77.43;92985.81;5096884;28;19915;-39
2021/12/02 02:18:01;;;;;;;26.88;14.27;;;;;;;-2.40;77.46;92996.13;5097647;28;20023;-39
2021/12/02 02:20:50;;;;;;;25.25;13.88;;;;;;;-2.61;77.91;92995.44;5097869;28;20031;-39
2021/12/02 02:23:15;;;;;;;26.63;12.00;;;;;;;-2.48;78.21;92997.78;5100522;28;20084;-40
2021/12/02 02:25:43;;;;;;;18.02;12.45;;;;;;;-2.45;77.23;93005.69;5095376;28;20027;-41
2021/12/02 02:28:08;;;;;;;19.58;12.45;;;;;;;-2.44;77.09;92992.91;5098228;28;20016;-40
2021/12/02 02:30:34;;;;;;;22.75;13.23;;;;;;;-2.47;77.94;93002.00;5099362;28;20027;-46
2021/12/02 02:33:00;;;;;;;31.25;15.90;;;;;;;-2.84;78.69;92990.28;5100237;28;20408;-42
2021/12/02 02:35:25;;;;;;;24.83;13.63;;;;;;;-2.74;78.87;92999.72;5098466;28;20027;-42
2021/12/02 02:37:51;;;;;;;25.05;13.95;;;;;;;-2.57;79.05;93001.38;5099040;28;20111;-42
2021/12/02 02:40:17;;;;;;;26.67;14.20;;;;;;;-2.42;78.42;93003.97;5099093;28;20015;-42
2021/12/02 02:42:55;;;;;;;22.83;14.43;;;;;;;-2.37;77.76;92997.91;5098834;28;20615;-40
2021/12/02 02:45:21;;;;;;;24.45;13.55;;;;;;;-2.24;77.08;92997.53;5099369;28;20027;-43
2021/12/02 02:47:46;;;;;;;23.50;12.73;;;;;;;-2.29;76.29;92998.97;5095740;28;20107;-41
2021/12/02 02:50:13;;;;;;;20.50;12.52;;;;;;;-2.39;75.86;92998.38;5099178;28;20015;-42
2021/12/02 02:52:40;;;;;;;22.35;10.93;;;;;;;-2.79;75.58;92997.69;5099168;28;20486;-41
2021/12/02 02:55:06;;;;;;;23.80;12.60;;;;;;;-2.64;75.96;92996.38;5101647;28;20028;-40
2021/12/02 02:57:40;;;;;;;26.20;14.02;;;;;;;-2.50;75.86;92992.88;5095391;28;20516;-42
2021/12/02 03:00:10;;;;;;;29.13;15.35;;;;;;;-2.53;75.52;92961.38;5096339;28;20036;-42
2021/12/02 03:07:59;;;;;;;26.57;14.37;;;;;;;-2.50;75.74;92989.41;5097180;28;20102;-41
2021/12/02 03:13:20;;;;;;;27.67;15.07;;;;;;;-2.77;76.33;92979.06;5097688;28;20474;-40
2021/12/02 03:18:31;;;;;;;23.10;14.43;;;;;;;-2.59;76.20;92970.66;5096834;28;20046;-42
2021/12/02 03:20:56;;;;;;;27.85;15.40;;;;;;;-2.45;76.03;92975.22;5097136;28;20020;-42
2021/12/02 03:23:23;;;;;;;26.30;16.23;;;;;;;-2.64;76.30;92965.94;5096829;28;20085;-43
2021/12/02 03:25:49;;;;;;;27.33;14.88;;;;;;;-2.71;76.30;92960.94;5095079;28;20043;-39
2021/12/02 03:28:15;;;;;;;33.58;14.95;;;;;;;-2.94;76.87;92965.34;5097030;28;20364;-40
2021/12/02 03:30:40;;;;;;;36.53;17.92;;;;;;;-2.95;77.12;92968.53;5097061;28;20031;-41
2021/12/02 03:33:06;;;;;;;20.83;12.10;;;;;;;-3.07;76.38;92965.72;5098560;28;20027;-40
2021/12/02 03:35:31;;;;;;;28.45;13.88;;;;;;;-3.04;75.98;92965.97;5096737;28;20027;-41
2021/12/02 03:37:57;;;;;;;26.63;15.65;;;;;;;-3.00;75.44;92969.97;5098916;28;20034;-38
2021/12/02 03:40:23;;;;;;;27.88;15.48;;;;;;;-3.44;76.96;92959.34;5098233;28;20038;-38
2021/12/02 03:42:52;;;;;;;30.23;17.30;;;;;;;-3.14;77.12;92943.78;5097737;28;20031;-37
2021/12/02 03:45:18;;;;;;;29.08;17.83;;;;;;;-3.11;77.65;92954.38;5096462;28;20022;-39
2021/12/02 03:47:44;;;;;;;35.70;18.23;;;;;;;-3.17;77.93;92948.16;5096287;28;20031;-39
2021/12/02 03:50:10;;;;;;;26.58;15.25;;;;;;;-3.09;77.32;92943.84;5097409;28;20058;-40
2021/12/02 03:52:36;;;;;;;18.90;11.60;;;;;;;-2.96;75.73;92950.84;5098403;28;20028;-39
2021/12/02 03:55:03;;;;;;;23.88;11.88;;;;;;;-2.96;76.22;92940.78;5096671;28;20030;-39
2021/12/02 03:57:31;;;;;;;43.17;22.02;;;;;;;-2.88;74.60;92938.44;5097620;28;20069;-40
2021/12/02 03:59:57;;;;;;;44.92;22.00;;;;;;;-3.00;75.99;92945.66;5099806;28;20035;-40
2021/12/02 04:02:23;;;;;;;36.75;18.90;;;;;;;-3.15;76.09;92940.34;5099152;28;20421;-42
2021/12/02 04:04:48;;;;;;;42.80;20.58;;;;;;;-3.41;76.80;92933.38;5096029;28;20103;-41
2021/12/02 04:07:17;;;;;;;46.85;27.85;;;;;;;-3.38;77.04;92952.06;5100154;28;20032;-40
2021/12/02 04:09:44;;;;;;;25.48;16.67;;;;;;;-3.52;76.65;92952.88;5100474;28;20035;-41
2021/12/02 04:12:27;;;;;;;42.90;23.85;;;;;;;-3.49;77.54;92954.63;5099585;28;20067;-40
2021/12/02 04:17:29;;;;;;;61.55;31.85;;;;;;;-3.18;76.38;92957.47;5099419;28;20662;-42
2021/12/02 04:19:55;;;;;;;56.95;30.27;;;;;;;-3.00;76.04;92942.22;5099806;28;20057;-42
2021/12/02 04:22:20;;;;;;;50.85;28.25;;;;;;;-3.39;76.16;92941.75;5101888;27;20020;-39
2021/12/02 04:24:46;;;;;;;35.92;21.67;;;;;;;-3.37;76.72;92931.97;5098487;28;20417;-39
2021/12/02 04:27:11;;;;;;;34.88;17.13;;;;;;;-3.41;76.38;92936.81;5100387;28;20122;-41
2021/12/02 04:29:37;;;;;;;25.73;12.48;;;;;;;-3.34;75.30;92935.69;5101865;28;20035;-39
2021/12/02 04:32:04;;;;;;;21.67;13.13;;;;;;;-3.26;75.13;92934.06;5102289;28;20081;-40
2021/12/02 04:34:29;;;;;;;31.02;16.65;;;;;;;-3.35;74.18;92909.91;5099877;28;20033;-41
2021/12/02 04:36:55;;;;;;;40.13;20.27;;;;;;;-3.12;74.41;92923.19;5100594;28;20027;-39
2021/12/02 04:39:21;;;;;;;48.08;23.60;;;;;;;-3.07;74.57;92922.50;5101599;28;20523;-40
2021/12/02 04:41:46;;;;;;;38.30;20.13;;;;;;;-2.98;73.99;92931.66;5097802;28;20120;-39
2021/12/02 04:44:13;;;;;;;38.30;20.50;;;;;;;-3.36;75.32;92911.88;5098614;27;20115;-39
2021/12/02 04:46:39;;;;;;;32.67;17.83;;;;;;;-3.34;75.59;92914.09;5098567;28;20020;-39
2021/12/02 04:49:05;;;;;;;30.10;16.25;;;;;;;-3.41;76.60;92920.63;5099990;28;20028;-40
2021/12/02 04:51:30;;;;;;;29.15;15.40;;;;;;;-3.39;75.87;92920.16;5101564;27;20034;-39
2021/12/02 04:53:56;;;;;;;25.83;14.13;;;;;;;-3.19;75.77;92920.16;5101186;28;20493;-40
2021/12/02 04:56:21;;;;;;;32.75;16.88;;;;;;;-3.14;74.99;92928.31;5100993;28;20040;-39
2021/12/02 04:58:48;;;;;;;33.90;16.63;;;;;;;-3.31;76.04;92921.22;5099206;28;20030;-40
2021/12/02 05:01:13;;;;;;;37.47;19.20;;;;;;;-3.45;76.42;92922.81;5102367;28;20027;-39
2021/12/02 05:03:39;;;;;;;21.33;11.77;;;;;;;-3.37;75.86;92937.38;5099553;28;20035;-39
2021/12/02 05:06:04;;;;;;;79.50;35.60;;;;;;;-3.45;74.75;92914.69;5100268;28;20035;-39
2021/12/02 05:08:30;;;;;;;34.92;18.60;;;;;;;-3.33;75.06;92915.56;5099451;28;20567;-39
2021/12/02 05:10:55;;;;;;;34.08;18.35;;;;;;;-3.39;76.25;92923.59;5101953;28;20023;-40
2021/12/02 05:13:21;;;;;;;41.00;18.55;;;;;;;-3.35;77.14;92913.34;5097825;28;20115;-40
2021/12/02 05:15:46;;;;;;;37.65;18.50;;;;;;;-3.32;75.81;92915.09;5102243;28;20536;-42
2021/12/02 05:18:12;;;;;;;43.13;21.42;;;;;;;-3.31;75.67;92926.63;5100232;28;20106;-42
2021/12/02 05:20:38;;;;;;;46.55;26.38;;;;;;;-3.44;75.24;92902.69;5102285;28;20046;-40
2021/12/02 05:23:03;;;;;;;57.72;34.78;;;;;;;-3.40;75.92;92919.41;5099532;28;20020;-42
2021/12/02 05:25:29;;;;;;;54.90;29.60;;;;;;;-3.52;77.20;92914.34;5100314;28;20081;-41
2021/12/02 05:27:54;;;;;;;50.53;26.38;;;;;;;-3.54;77.11;92916.78;5099321;28;20100;-41
2021/12/02 05:30:20;;;;;;;40.67;22.92;;;;;;;-3.60;76.88;92914.03;5100322;28;20084;-41
2021/12/02 05:32:45;;;;;;;54.58;28.58;;;;;;;-3.82;76.27;92911.03;5098924;28;20105;-40
2021/12/02 05:35:11;;;;;;;48.03;24.20;;;;;;;-3.79;76.31;92910.09;5099772;28;20023;-39
2021/12/02 05:37:36;;;;;;;46.45;21.23;;;;;;;-3.69;76.14;92908.00;5098143;28;20020;-39
2021/12/02 05:40:03;;;;;;;40.42;21.30;;;;;;;-3.84;75.85;92913.44;5099604;28;20019;-39
2021/12/02 05:42:28;;;;;;;70.07;37.85;;;;;;;-3.63;76.15;92914.19;5097451;28;20027;-39
2021/12/02 05:44:54;;;;;;;60.40;30.40;;;;;;;-3.57;76.40;92910.38;5099683;28;20030;-39
2021/12/02 05:47:20;;;;;;;50.55;26.23;;;;;;;-3.81;76.47;92920.59;5100435;28;20051;-39
2021/12/02 05:49:45;;;;;;;48.88;22.38;;;;;;;-3.77;76.03;92925.81;5097145;28;20027;-38
2021/12/02 05:52:11;;;;;;;36.58;18.95;;;;;;;-3.74;75.56;92928.28;5097262;28;20031;-39
2021/12/02 05:54:36;;;;;;;32.83;16.55;;;;;;;-3.83;76.26;92931.09;5098026;28;20539;-39
2021/12/02 05:57:02;;;;;;;28.75;14.18;;;;;;;-3.95;76.97;92907.91;5097570;28;20024;-39
2021/12/02 05:59:27;;;;;;;36.15;15.00;;;;;;;-3.94;78.13;92923.59;5097312;28;20020;-38
2021/12/02 06:01:53;;;;;;;39.35;17.92;;;;;;;-3.63;78.68;92922.28;5094410;28;20111;-38
2021/12/02 06:04:19;;;;;;;43.90;20.38;;;;;;;-3.78;78.78;92913.50;5097869;28;20035;-38
2021/12/02 06:06:44;;;;;;;46.28;19.67;;;;;;;-3.74;79.31;92920.19;5097618;28;20128;-39
2021/12/02 06:09:10;;;;;;;54.42;24.38;;;;;;;-3.48;79.67;92917.59;5097440;28;20089;-41
2021/12/02 06:11:35;;;;;;;43.42;21.17;;;;;;;-3.53;78.92;92908.22;5098837;28;20020;-40
2021/12/02 06:14:03;;;;;;;43.65;21.13;;;;;;;-3.41;78.93;92922.59;5098305;28;20028;-40
2021/12/02 06:16:29;;;;;;;48.92;23.65;;;;;;;-3.23;78.74;92922.31;5096650;28;20589;-40
2021/12/02 06:18:54;;;;;;;54.40;25.98;;;;;;;-3.27;78.46;92932.59;5096809;28;20508;-39
2021/12/02 06:21:20;;;;;;;51.15;25.73;;;;;;;-3.29;78.65;92924.94;5096553;28;20064;-39
2021/12/02 06:23:46;;;;;;;61.83;31.08;;;;;;;-3.35;78.81;92921.44;5096113;28;20028;-42
2021/12/02 06:26:11;;;;;;;60.70;27.92;;;;;;;-3.30;78.49;92942.38;5096952;28;20035;-40
2021/12/02 06:28:37;;;;;;;71.28;33.92;;;;;;;-3.30;78.28;92939.66;5098186;28;20047;-39
2021/12/02 06:31:02;;;;;;;78.72;37.53;;;;;;;-3.47;77.78;92946.81;5095721;28;20038;-39
2021/12/02 06:33:32;;;;;;;74.32;30.92;;;;;;;-3.47;76.94;92933.31;5097308;28;20502;-39
2021/12/02 06:35:58;;;;;;;55.42;25.27;;;;;;;-3.40;77.27;92935.59;5094631;28;20031;-40
2021/12/02 06:38:23;;;;;;;63.97;27.00;;;;;;;-3.41;76.44;92917.19;5098598;28;20042;-40
2021/12/02 06:40:49;;;;;;;56.20;27.70;;;;;;;-3.16;77.13;92938.09;5095724;28;20034;-39
2021/12/02 06:43:15;;;;;;;99.75;43.45;;;;;;;-3.27;77.37;92944.09;5096362;28;20034;-39
2021/12/02 06:45:42;;;;;;;70.22;33.42;;;;;;;-3.15;77.23;92951.13;5097370;28;20038;-39
2021/12/02 06:48:08;;;;;;;106.28;46.08;;;;;;;-3.08;77.36;92948.03;5097671;28;20654;-39
2021/12/02 06:50:35;;;;;;;105.95;54.47;;;;;;;-2.94;76.83;92945.72;5094685;28;20027;-39
2021/12/02 06:53:00;;;;;;;70.15;35.15;;;;;;;-2.87;77.40;92948.00;5095089;28;20031;-38
2021/12/02 06:55:26;;;;;;;75.30;35.90;;;;;;;-2.89;77.74;92942.34;5096984;28;20415;-39
2021/12/02 06:57:52;;;;;;;53.65;26.65;;;;;;;-2.96;78.81;92938.09;5097348;28;20126;-39
2021/12/02 07:00:19;;;;;;;45.65;21.98;;;;;;;-2.79;78.73;92939.00;5094652;28;20027;-38
2021/12/02 07:02:45;;;;;;;40.65;20.85;;;;;;;-2.73;78.76;92915.47;5092822;28;20963;-38
2021/12/02 07:05:12;;;;;;;35.15;17.55;;;;;;;-2.33;78.34;92928.88;5094814;28;20043;-38
2021/12/02 07:07:38;;;;;;;52.92;24.40;;;;;;;-2.20;78.39;92927.75;5095722;28;20385;-39
2021/12/02 07:10:05;;;;;;;32.78;17.23;;;;;;;-1.81;77.20;92928.78;5095373;28;20027;-38
2021/12/02 07:12:33;;;;;;;44.03;22.80;;;;;;;-1.36;77.09;92921.66;5097173;28;20110;-39
2021/12/02 07:14:59;;;;;;;41.80;22.20;;;;;;;-0.86;75.42;92922.59;5094124;28;20050;-39
2021/12/02 07:17:25;;;;;;;46.33;25.58;;;;;;;-0.50;74.35;92924.44;5098325;28;20059;-40
2021/12/02 07:19:50;;;;;;;34.85;19.27;;;;;;;-0.23;73.39;92920.25;5097072;28;20058;-42
2021/12/02 07:22:16;;;;;;;35.53;20.40;;;;;;;0.19;71.91;92922.75;5097072;28;20571;-39
2021/12/02 07:24:42;;;;;;;41.33;22.83;;;;;;;0.34;71.44;92917.78;5094624;28;20026;-41
2021/12/02 07:27:07;;;;;;;50.65;28.88;;;;;;;0.61;70.96;92927.09;5095316;28;20513;-39
2021/12/02 07:29:33;;;;;;;53.80;33.80;;;;;;;0.68;71.29;92927.34;5099605;28;20043;-41
2021/12/02 07:32:01;;;;;;;38.47;24.85;;;;;;;0.64;71.46;92929.59;5095418;28;20107;-39
2021/12/02 07:34:33;;;;;;;39.88;22.63;;;;;;;0.48;72.15;92916.03;5096507;28;20035;-39
2021/12/02 07:36:59;;;;;;;33.40;21.80;;;;;;;0.47;72.56;92920.00;5094066;28;20052;-39
2021/12/02 07:39:25;;;;;;;23.48;16.10;;;;;;;0.52;73.01;92917.25;5096607;28;20472;-39
2021/12/02 07:41:51;;;;;;;24.90;16.35;;;;;;;1.39;71.78;92922.13;5099180;28;20020;-39
2021/12/02 07:44:17;;;;;;;16.60;9.23;;;;;;;2.55;68.46;92910.41;5097085;28;20279;-41
2021/12/02 07:46:43;;;;;;;19.23;11.85;;;;;;;3.78;65.93;92915.91;5097760;28;20036;-40
2021/12/02 07:49:12;;;;;;;18.30;11.07;;;;;;;5.25;61.22;92915.16;5096667;28;20024;-41
2021/12/02 07:51:38;;;;;;;16.40;10.93;;;;;;;6.75;55.37;92907.88;5097462;28;20063;-40
2021/12/02 07:54:04;;;;;;;18.85;12.13;;;;;;;7.97;52.52;92903.78;5098220;28;20115;-40
2021/12/02 07:56:33;;;;;;;18.55;12.05;;;;;;;9.36;48.60;92902.78;5099908;28;20027;-40
2021/12/02 07:58:59;;;;;;;18.33;12.73;;;;;;;10.38;46.08;92903.53;5101042;28;20592;-42
2021/12/02 08:01:25;;;;;;;15.50;11.98;;;;;;;11.47;43.14;92906.38;5096924;28;20810;-43
2021/12/02 08:03:51;;;;;;;18.38;13.45;;;;;;;12.65;40.49;92904.06;5099664;28;20024;-40
2021/12/02 08:06:17;;;;;;;15.48;12.25;;;;;;;13.53;38.25;92904.56;5098829;28;20118;-40
2021/12/02 08:08:45;;;;;;;14.02;9.85;;;;;;;14.17;36.50;92911.31;5098454;28;20126;-40
2021/12/02 08:11:12;;;;;;;10.17;8.70;;;;;;;14.47;35.75;92910.72;5101931;28;20102;-40
2021/12/02 08:13:37;;;;;;;11.27;8.40;;;;;;;14.72;35.44;92905.56;5101178;28;20023;-41
2021/12/02 08:16:05;;;;;;;12.98;10.30;;;;;;;15.05;35.02;92906.47;5098765;28;20437;-40
2021/12/02 08:18:31;;;;;;;21.10;15.60;;;;;;;14.95;34.77;92908.56;5099351;28;20031;-41
2021/12/02 08:20:58;;;;;;;25.98;20.13;;;;;;;13.68;36.26;92901.50;5098616;28;20023;-41
2021/12/02 08:23:24;;;;;;;26.60;21.45;;;;;;;14.20;37.07;92908.13;5098494;28;20020;-42
2021/12/02 08:25:50;;;;;;;29.50;22.75;;;;;;;14.40;36.84;92904.00;5098348;28;20470;-41
2021/12/02 08:28:16;;;;;;;21.02;16.00;;;;;;;14.97;36.08;92902.41;5097556;28;20035;-40
2021/12/02 08:30:41;;;;;;;19.88;15.75;;;;;;;14.79;35.51;92907.44;5099946;27;20103;-41
2021/12/02 08:33:12;;;;;;;20.90;15.55;;;;;;;14.67;35.27;92908.63;5100161;28;20035;-40
2021/12/02 08:35:38;;;;;;;16.85;12.95;;;;;;;14.15;36.23;92897.28;5102243;28;20055;-42
2021/12/02 08:38:10;;;;;;;19.00;13.90;;;;;;;13.71;37.07;92899.63;5101352;28;20018;-42
2021/12/02 08:40:37;;;;;;;20.55;16.90;;;;;;;13.63;37.63;92888.66;5101006;27;20107;-43
2021/12/02 08:43:05;;;;;;;14.77;11.27;;;;;;;13.66;37.89;92885.44;5102860;28;20030;-41
2021/12/02 08:45:31;;;;;;;16.40;8.93;;;;;;;14.59;36.64;92889.38;5101297;28;20026;-43
2021/12/02 08:47:58;;;;;;;11.35;8.40;;;;;;;14.79;35.36;92890.06;5100861;28;20031;-44
2021/12/02 08:50:24;;;;;;;15.02;12.75;;;;;;;14.64;36.50;92882.75;5099975;28;20031;-45
2021/12/02 08:52:51;;;;;;;12.10;10.88;;;;;;;13.29;37.59;92884.06;5100640;28;20027;-43
2021/12/02 08:55:18;;;;;;;12.43;10.07;;;;;;;14.27;38.30;92885.00;5100220;28;20408;-44
2021/12/02 08:57:48;;;;;;;11.30;9.27;;;;;;;15.76;36.65;92875.84;5100312;28;20102;-45
2021/12/02 09:00:16;;;;;;;9.32;6.68;;;;;;;16.52;35.53;92874.47;5097199;28;20038;-43
2021/12/02 09:02:42;;;;;;;7.03;5.77;;;;;;;17.51;33.79;92871.44;5101170;28;20123;-41
2021/12/02 09:05:08;;;;;;;7.45;5.97;;;;;;;17.94;31.96;92864.94;5101452;28;20544;-41
2021/12/02 09:07:34;;;;;;;10.82;8.43;;;;;;;18.37;31.14;92872.91;5103098;28;20054;-41
2021/12/02 09:10:00;;;;;;;9.35;6.90;;;;;;;17.94;31.88;92862.13;5101741;28;20023;-40
2021/12/02 09:12:25;;;;;;;19.70;8.93;;;;;;;18.65;31.03;92857.72;5101152;28;20110;-41
2021/12/02 09:14:51;;;;;;;10.00;8.52;;;;;;;16.92;33.69;92851.16;5099139;28;20073;-40
2021/12/02 09:17:17;;;;;;;11.50;8.55;;;;;;;17.88;31.72;92842.25;5100728;28;20516;-40
2021/12/02 09:19:43;;;;;;;11.63;9.65;;;;;;;18.16;32.07;92843.84;5100142;28;20447;-41
2021/12/02 09:22:09;;;;;;;10.93;9.05;;;;;;;18.01;32.27;92838.81;5098978;27;20035;-41
2021/12/02 09:24:36;;;;;;;14.30;9.68;;;;;;;19.27;31.00;92835.19;5099857;28;20168;-41
2021/12/02 09:27:02;;;;;;;13.65;10.02;;;;;;;20.16;29.38;92834.84;5101030;28;20485;-42
2021/12/02 09:29:27;;;;;;;9.98;8.57;;;;;;;20.51;28.26;92831.63;5099109;28;20031;-41
2021/12/02 09:31:54;;;;;;;6.78;5.53;;;;;;;20.66;27.95;92817.63;5099481;28;20043;-42
2021/12/02 09:34:20;;;;;;;9.68;5.50;;;;;;;20.93;27.55;92814.69;5100354;28;20019;-43
2021/12/02 09:36:46;;;;;;;7.60;5.57;;;;;;;20.84;27.67;92812.88;5099193;28;20479;-41
2021/12/02 09:39:14;;;;;;;14.77;7.20;;;;;;;21.28;28.05;92819.06;5101861;28;20059;-41
2021/12/02 09:41:41;;;;;;;8.63;7.72;;;;;;;21.32;28.15;92825.59;5100096;28;20027;-41
2021/12/02 09:44:06;;;;;;;8.15;7.13;;;;;;;21.55;27.28;92816.78;5102216;28;20420;-44
2021/12/02 09:46:34;;;;;;;7.22;6.05;;;;;;;21.27;27.26;92817.63;5098800;28;20032;-43
2021/12/02 09:49:02;;;;;;;9.88;8.88;;;;;;;21.53;26.73;92813.16;5098087;28;20026;-42
2021/12/02 09:51:33;;;;;;;7.13;5.55;;;;;;;21.23;27.51;92817.44;5096235;27;20023;-41
2021/12/02 09:54:17;;;;;;;6.47;5.55;;;;;;;21.39;27.34;92818.16;5094417;28;20501;-43
2021/12/02 09:56:46;;;;;;;9.20;6.43;;;;;;;21.86;26.56;92796.34;5097830;28;20111;-41
2021/12/02 09:59:24;;;;;;;;;;;;;;;21.79;25.48;92808.66;5097494;28;20106;-43
2021/12/02 10:01:54;;;;;;;20.40;13.38;;;;;;;21.63;25.92;92808.72;5097237;28;19916;-41
2021/12/02 10:04:22;;;;;;;50.78;30.33;;;;;;;21.77;26.81;92800.88;5100403;28;20416;-40
2021/12/02 10:06:48;;;;;;;42.70;29.63;;;;;;;22.07;26.31;92801.44;5097438;28;20407;-43
2021/12/02 10:09:38;;;;;;;27.60;19.63;;;;;;;22.19;25.84;92796.31;5094485;28;20023;-44
2021/12/02 10:12:13;;;;;;;14.13;9.93;;;;;;;22.50;25.77;92787.03;5097928;28;20111;-41
2021/12/02 10:14:41;;;;;;;9.70;6.15;;;;;;;22.40;25.35;92784.53;5093531;28;20027;-42
2021/12/02 10:17:20;;;;;;;9.00;6.67;;;;;;;22.09;24.50;92783.94;5096786;28;20073;-42
2021/12/02 10:23:27;;;;;;;12.13;7.85;;;;;;;21.37;26.07;92773.16;5061604;28;20829;-42
2021/12/02 10:25:58;;;;;;;13.27;8.93;;;;;;;20.77;26.44;92773.97;5089721;28;20039;-41
2021/12/02 10:28:26;;;;;;;10.45;6.63;;;;;;;19.47;27.22;92775.38;5097281;28;20028;-42
2021/12/02 10:30:56;;;;;;;8.70;4.93;;;;;;;19.88;26.46;92766.19;5099004;27;20682;-44
2021/12/02 10:33:36;;;;;;;17.33;8.95;;;;;;;20.20;26.43;92768.50;5096923;28;20012;-40
2021/12/02 10:36:04;;;;;;;33.45;24.30;;;;;;;20.40;25.08;92758.22;5096882;28;20055;-41
2021/12/02 10:38:39;;;;;;;6.93;5.80;;;;;;;21.08;25.07;92765.56;5096918;28;20468;-42
2021/12/02 10:41:07;;;;;;;5.10;3.40;;;;;;;19.85;24.54;92753.44;5098944;28;20028;-41
2021/12/02 10:43:32;;;;;;;5.72;3.80;;;;;;;20.06;25.61;92755.84;5098943;28;20061;-41
2021/12/02 10:46:16;;;;;;;4.88;2.97;;;;;;;20.68;26.29;92750.41;5101452;28;20035;-43
2021/12/02 10:48:50;;;;;;;4.00;2.90;;;;;;;21.48;24.49;92749.75;5099188;28;20055;-42
2021/12/02 10:51:46;;;;;;;24.63;22.33;;;;;;;21.22;23.99;92745.81;5098378;28;20489;-43
2021/12/02 10:54:14;;;;;;;4.35;3.75;;;;;;;21.79;23.81;92739.13;5098409;28;20035;-45
2021/12/02 10:56:43;;;;;;;3.40;2.20;;;;;;;22.01;23.51;92735.81;5101024;28;20051;-43
2021/12/02 10:59:24;;;;;;;1.75;1.55;;;;;;;22.11;22.85;92734.13;5099148;28;20029;-45
2021/12/02 11:01:52;;;;;;;3.08;1.40;;;;;;;22.04;24.05;92732.47;5100292;28;20081;-41
2021/12/02 11:04:18;;;;;;;2.67;1.30;;;;;;;21.60;21.43;92720.09;5099233;28;20390;-40
2021/12/02 11:06:46;;;;;;;1.17;1.00;;;;;;;21.87;23.64;92722.63;5097708;28;20034;-41
2021/12/02 11:09:29;;;;;;;3.15;1.52;;;;;;;21.78;22.42;92720.84;5097629;28;20020;-42
2021/12/02 11:12:16;;;;;;;3.10;1.58;;;;;;;21.65;24.24;92710.47;5097964;28;20028;-41
2021/12/02 11:14:51;;;;;;;1.40;1.30;;;;;;;21.68;23.47;92706.38;5099790;28;20020;-41
2021/12/02 11:17:16;;;;;;;1.73;1.42;;;;;;;21.54;24.06;92705.06;5097542;28;20019;-42
2021/12/02 11:19:44;;;;;;;2.90;1.75;;;;;;;20.99;22.66;92704.78;5098133;28;20027;-43
2021/12/02 11:22:12;;;;;;;11.68;8.68;;;;;;;21.02;24.25;92697.91;5099435;28;20032;-44
2021/12/02 11:24:39;;;;;;;13.00;9.90;;;;;;;20.49;25.43;92700.44;5098800;28;20054;-42
2021/12/02 11:27:21;;;;;;;16.13;12.68;;;;;;;20.47;25.38;92689.13;5095819;28;20667;-45
2021/12/02 11:29:49;;;;;;;3.15;1.20;;;;;;;19.93;23.57;92686.56;5098843;28;20031;-42
2021/12/02 11:32:29;;;;;;;2.40;1.00;;;;;;;19.42;24.86;92689.03;5097131;28;20024;-45
2021/12/02 11:35:09;;;;;;;1.48;1.10;;;;;;;18.42;25.53;92692.91;5098387;28;20425;-42
2021/12/02 11:37:36;;;;;;;2.97;1.13;;;;;;;18.25;26.38;92679.44;5098880;28;20027;-43
2021/12/02 11:40:14;;;;;;;3.08;1.05;;;;;;;18.25;26.35;92682.22;5096789;28;20016;-45
2021/12/02 11:42:40;;;;;;;1.40;1.27;;;;;;;18.45;26.63;92681.25;5098051;28;20133;-42
2021/12/02 11:45:08;;;;;;;4.03;1.88;;;;;;;18.84;26.95;92678.41;5099047;28;20119;-42
2021/12/02 11:47:34;;;;;;;2.85;1.60;;;;;;;18.92;27.03;92676.75;5095889;28;20016;-41
2021/12/02 11:50:00;;;;;;;2.00;1.42;;;;;;;18.70;26.23;92664.41;5101219;28;20498;-41